Time;durP1;ratioP1;P1;durP2;ratioP2;P2;SDS_P1;SDS_P2;PMS_P1;PMS_P2;Temp;Humidity;BMP_temperature;BMP_pressure;BME280_temperature;BME280_humidity;BME280_pressure;Samples;Min_cycle;Max_cycle;Signal;HPM_P1;HPM_P2
2021/01/18 00:02:07;;;;;;;1.95;1.10;;;;;;;-5.53;96.64;100069.72;5011705;28;20045;-67
2021/01/18 00:04:52;;;;;;;1.33;0.93;;;;;;;-5.52;96.35;100065.47;5011975;28;20068;-66
2021/01/18 00:07:51;;;;;;;4.03;1.30;;;;;;;-5.51;96.32;100062.88;5012190;28;20096;-65
2021/01/18 00:10:36;;;;;;;1.52;1.10;;;;;;;-5.51;96.37;100067.13;5011665;28;20064;-65
2021/01/18 00:13:21;;;;;;;2.25;1.10;;;;;;;-5.52;96.53;100068.00;5011605;28;20523;-68
2021/01/18 00:16:06;;;;;;;2.35;1.30;;;;;;;-5.50;96.33;100067.16;5029858;28;20052;-67
2021/01/18 00:18:52;;;;;;;1.25;1.05;;;;;;;-5.49;96.15;100057.81;5030389;28;20047;-64
2021/01/18 00:21:44;;;;;;;1.02;0.80;;;;;;;-5.49;96.58;100060.34;5031668;28;20053;-66
2021/01/18 00:24:29;;;;;;;0.95;0.85;;;;;;;-5.50;96.51;100062.06;5024782;28;20103;-67
2021/01/18 00:27:14;;;;;;;1.77;1.27;;;;;;;-5.49;96.38;100057.81;5011750;28;20056;-66
2021/01/18 00:30:00;;;;;;;1.95;1.02;;;;;;;-5.49;96.38;100063.72;5011643;28;20049;-67
2021/01/18 00:32:45;;;;;;;2.67;1.30;;;;;;;-5.48;96.38;100060.31;5011329;28;20051;-65
2021/01/18 00:35:31;;;;;;;2.80;1.38;;;;;;;-5.46;96.58;100062.84;5012141;28;20057;-65
2021/01/18 00:38:16;;;;;;;2.47;1.00;;;;;;;-5.45;96.76;100065.41;5011552;28;20393;-65
2021/01/18 00:41:02;;;;;;;2.08;1.05;;;;;;;-5.42;96.80;100064.50;5013260;28;20064;-65
2021/01/18 00:43:47;;;;;;;5.00;0.98;;;;;;;-5.38;96.81;100068.72;5015302;28;20132;-66
2021/01/18 00:46:32;;;;;;;1.88;0.90;;;;;;;-5.36;96.53;100069.56;5015283;28;20409;-66
2021/01/18 00:49:18;;;;;;;1.88;0.90;;;;;;;-5.33;96.73;100073.78;5014329;28;20057;-65
2021/01/18 00:52:04;;;;;;;1.70;1.00;;;;;;;-5.31;96.81;100067.81;5015033;28;20530;-67
2021/01/18 00:54:49;;;;;;;2.13;1.23;;;;;;;-5.28;96.62;100072.00;5014526;28;20052;-66
2021/01/18 00:57:51;;;;;;;1.27;0.93;;;;;;;-5.26;96.85;100076.25;5013025;28;20064;-64
2021/01/18 01:00:38;;;;;;;1.13;0.95;;;;;;;-5.26;96.36;100072.88;5011607;28;20133;-68
2021/01/18 01:03:25;;;;;;;1.98;1.25;;;;;;;-5.26;96.68;100077.97;5011025;28;20061;-66
2021/01/18 01:06:10;;;;;;;1.17;0.70;;;;;;;-5.27;96.42;100071.16;5015603;28;20056;-65
2021/01/18 01:08:56;;;;;;;1.77;1.00;;;;;;;-5.27;96.31;100069.47;5014992;28;20053;-64
2021/01/18 01:11:45;;;;;;;2.08;1.20;;;;;;;-5.30;96.11;100066.09;5015196;28;20057;-65
2021/01/18 01:14:30;;;;;;;1.55;1.00;;;;;;;-5.33;96.21;100081.41;5020915;28;20053;-67
2021/01/18 01:17:15;;;;;;;2.47;1.20;;;;;;;-5.35;96.14;100070.41;5034606;28;20052;-64
2021/01/18 01:20:02;;;;;;;1.60;1.10;;;;;;;-5.40;96.10;100073.00;5025778;28;20136;-66
2021/01/18 01:22:48;;;;;;;1.25;0.77;;;;;;;-5.45;95.88;100067.09;5014827;28;20092;-66
2021/01/18 01:25:33;;;;;;;2.00;1.20;;;;;;;-5.50;95.89;100066.31;5013580;28;20049;-64
2021/01/18 01:28:17;;;;;;;1.33;0.90;;;;;;;-5.53;95.62;100072.25;5014987;28;20072;-65
2021/01/18 01:31:03;;;;;;;2.00;1.13;;;;;;;-5.58;95.86;100070.63;5014525;28;20044;-66
2021/01/18 01:33:48;;;;;;;1.30;0.90;;;;;;;-5.61;96.22;100074.03;5014709;28;20065;-66
2021/01/18 01:36:40;;;;;;;1.33;0.80;;;;;;;-5.63;96.02;100069.81;5014687;28;20579;-65
2021/01/18 01:39:25;;;;;;;2.17;0.90;;;;;;;-5.68;95.71;100068.16;5011603;28;20612;-65
2021/01/18 01:42:21;;;;;;;0.95;0.80;;;;;;;-5.71;95.87;100070.72;5014681;28;20191;-65
2021/01/18 01:45:08;;;;;;;1.05;0.85;;;;;;;-5.75;95.98;100069.06;5014428;28;20057;-66
2021/01/18 01:47:55;;;;;;;1.08;0.90;;;;;;;-5.77;95.60;100065.69;5013953;28;20056;-65
2021/01/18 01:50:41;;;;;;;2.70;1.27;;;;;;;-5.80;96.03;100064.88;5014031;28;20065;-65
2021/01/18 01:53:29;;;;;;;1.77;1.00;;;;;;;-5.83;95.87;100067.47;5012803;28;20056;-67
2021/01/18 01:56:14;;;;;;;1.00;0.70;;;;;;;-5.87;95.91;100064.09;5014614;28;20139;-64
2021/01/18 01:58:59;;;;;;;0.88;0.70;;;;;;;-5.89;95.99;100067.47;5014391;28;20045;-65
2021/01/18 02:01:45;;;;;;;2.85;0.95;;;;;;;-5.91;96.00;100057.31;5026923;28;20041;-66
2021/01/18 02:04:32;;;;;;;1.73;1.08;;;;;;;-5.90;96.12;100063.25;5014256;28;20507;-67
2021/01/18 02:07:25;;;;;;;2.33;0.98;;;;;;;-5.90;96.29;100053.06;5013898;28;20397;-65
2021/01/18 02:10:11;;;;;;;3.83;0.85;;;;;;;-5.90;96.78;100058.16;5014127;28;20049;-67
2021/01/18 02:12:59;;;;;;;1.10;1.00;;;;;;;-5.90;96.06;100055.63;5013757;28;20057;-66
2021/01/18 02:15:50;;;;;;;1.35;0.90;;;;;;;-5.90;95.60;100056.47;5029216;28;20138;-66
2021/01/18 02:18:54;;;;;;;3.03;0.88;;;;;;;-5.88;96.58;100061.56;5033829;28;20514;-66
2021/01/18 02:21:54;;;;;;;1.75;1.10;;;;;;;-5.89;96.44;100055.59;5033803;28;20056;-66
2021/01/18 02:25:01;;;;;;;1.55;0.80;;;;;;;-5.89;96.64;100042.03;5033434;28;20139;-65
2021/01/18 02:27:46;;;;;;;1.20;0.90;;;;;;;-5.88;96.33;100052.22;5011521;28;20068;-67
2021/01/18 02:30:53;;;;;;;1.85;1.10;;;;;;;-5.85;96.36;100052.16;5014030;28;20060;-67
2021/01/18 02:34:10;;;;;;;1.08;0.90;;;;;;;-5.83;96.83;100049.63;5013495;28;20143;-67
2021/01/18 02:37:33;;;;;;;1.73;0.90;;;;;;;-5.82;96.35;100049.59;5013209;28;20575;-67
2021/01/18 02:40:32;;;;;;;3.67;1.13;;;;;;;-5.83;96.27;100049.63;5022050;28;20052;-67
2021/01/18 02:43:21;;;;;;;2.88;1.13;;;;;;;-5.83;96.77;100042.84;5013063;28;20044;-65
2021/01/18 02:46:07;;;;;;;1.13;0.80;;;;;;;-5.83;96.57;100042.00;5012353;28;20180;-68
2021/01/18 02:48:54;;;;;;;2.53;1.25;;;;;;;-5.81;96.40;100053.00;5013100;28;20061;-67
2021/01/18 02:51:43;;;;;;;1.38;0.90;;;;;;;-5.81;96.59;100046.19;5013186;28;20053;-65
2021/01/18 02:54:28;;;;;;;2.58;1.00;;;;;;;-5.80;96.42;100041.94;5012431;28;20056;-64
2021/01/18 02:57:16;;;;;;;1.30;0.80;;;;;;;-5.79;96.31;100051.25;5013051;28;20049;-65
2021/01/18 03:00:04;;;;;;;4.18;1.20;;;;;;;-5.80;96.62;100044.50;5012839;28;20136;-66
2021/01/18 03:03:29;;;;;;;3.67;1.20;;;;;;;-5.77;96.75;100047.03;5013178;28;20053;-65
2021/01/18 03:06:43;;;;;;;1.80;1.20;;;;;;;-5.77;96.72;100047.03;5003330;28;20207;-65
2021/01/18 03:09:48;;;;;;;1.88;1.10;;;;;;;-5.77;96.53;100034.28;5012708;28;20064;-66
2021/01/18 03:12:48;;;;;;;2.50;1.00;;;;;;;-5.75;96.96;100035.09;5012436;28;20053;-66
2021/01/18 03:15:39;;;;;;;1.45;1.00;;;;;;;-5.75;96.72;100033.41;5027085;28;20091;-67
2021/01/18 03:18:26;;;;;;;1.63;1.00;;;;;;;-5.74;96.47;100039.38;5033216;28;20176;-66
2021/01/18 03:21:12;;;;;;;1.42;0.85;;;;;;;-5.76;96.27;100029.16;5031979;28;20758;-66
2021/01/18 03:23:58;;;;;;;1.48;1.00;;;;;;;-5.75;96.28;100030.00;5032517;28;20044;-65
2021/01/18 03:26:43;;;;;;;2.25;0.80;;;;;;;-5.78;95.74;100030.06;5032440;28;20049;-64
2021/01/18 03:29:28;;;;;;;1.73;0.80;;;;;;;-5.79;95.32;100036.00;5032469;28;20057;-67
2021/01/18 03:32:13;;;;;;;4.45;1.20;;;;;;;-5.81;95.72;100041.09;5032235;28;20146;-65
2021/01/18 03:34:59;;;;;;;1.48;1.10;;;;;;;-5.83;95.63;100039.44;5032200;28;20060;-65
2021/01/18 03:37:51;;;;;;;2.08;1.20;;;;;;;-5.85;95.60;100028.41;5032311;28;20187;-65
2021/01/18 03:40:38;;;;;;;1.90;1.00;;;;;;;-5.85;95.60;100033.50;5032142;28;20063;-66
2021/01/18 03:43:23;;;;;;;1.77;1.02;;;;;;;-5.87;95.70;100030.97;5032013;28;20120;-67
2021/01/18 03:46:07;;;;;;;1.88;0.90;;;;;;;-5.86;95.55;100034.38;5032459;28;20052;-66
2021/01/18 03:48:53;;;;;;;1.30;1.00;;;;;;;-5.88;95.62;100033.56;5032390;28;20053;-65
2021/01/18 03:51:39;;;;;;;4.40;1.10;;;;;;;-5.88;95.45;100036.94;5031579;28;20049;-68
2021/01/18 03:54:24;;;;;;;1.63;0.90;;;;;;;-5.88;95.64;100041.19;5014361;28;20053;-67
2021/01/18 03:57:09;;;;;;;1.15;0.80;;;;;;;-5.87;95.98;100038.63;5011108;28;20096;-67
2021/01/18 03:59:54;;;;;;;2.75;1.05;;;;;;;-5.88;95.66;100041.19;5024475;28;20138;-65
2021/01/18 04:02:40;;;;;;;1.83;1.13;;;;;;;-5.88;95.91;100034.41;5012268;28;20100;-65
2021/01/18 04:05:27;;;;;;;1.95;1.00;;;;;;;-5.86;95.76;100040.31;5012242;28;20165;-67
2021/01/18 04:08:12;;;;;;;1.30;0.77;;;;;;;-5.86;95.95;100040.31;5011690;28;20057;-66
2021/01/18 04:10:57;;;;;;;1.98;1.08;;;;;;;-5.85;95.73;100039.44;5012028;28;20133;-65
2021/01/18 04:13:41;;;;;;;2.60;0.93;;;;;;;-5.83;95.76;100040.28;5011954;28;20056;-67
2021/01/18 04:16:26;;;;;;;1.38;0.88;;;;;;;-5.85;95.87;100036.88;5011632;28;20100;-67
2021/01/18 04:19:12;;;;;;;1.83;0.90;;;;;;;-5.82;95.83;100041.13;5011761;28;20095;-67
2021/01/18 04:21:57;;;;;;;1.38;0.90;;;;;;;-5.82;95.96;100044.50;5010282;28;20405;-65
2021/01/18 04:24:42;;;;;;;1.70;1.23;;;;;;;-5.81;95.75;100040.25;5011468;28;20056;-68
2021/01/18 04:27:27;;;;;;;1.63;0.90;;;;;;;-5.81;95.82;100047.91;5010499;28;20052;-67
2021/01/18 04:30:13;;;;;;;1.45;1.00;;;;;;;-5.80;95.60;100044.50;5012241;28;20508;-67
2021/01/18 04:33:03;;;;;;;0.70;0.60;;;;;;;-5.81;95.77;100045.34;5011150;28;20409;-65
2021/01/18 04:35:47;;;;;;;3.60;0.90;;;;;;;-5.82;95.77;100041.97;5011329;28;20429;-65
2021/01/18 04:38:33;;;;;;;2.42;0.95;;;;;;;-5.80;95.55;100045.34;5011287;28;20053;-67
2021/01/18 04:41:18;;;;;;;1.60;1.00;;;;;;;-5.78;95.60;100045.34;5012381;28;20075;-68
2021/01/18 04:44:08;;;;;;;1.35;0.80;;;;;;;-5.79;95.63;100041.09;5011395;28;20049;-65
2021/01/18 04:46:54;;;;;;;1.75;1.15;;;;;;;-5.77;95.54;100034.28;5011545;28;20153;-67
2021/01/18 04:49:40;;;;;;;1.83;0.93;;;;;;;-5.76;95.83;100041.06;5011484;28;20097;-67
2021/01/18 04:52:44;;;;;;;1.75;1.13;;;;;;;-5.74;95.85;100037.66;5011389;28;20052;-66
2021/01/18 04:55:30;;;;;;;1.73;0.90;;;;;;;-5.75;95.47;100040.19;5011325;28;20409;-66
2021/01/18 04:58:18;;;;;;;2.28;1.02;;;;;;;-5.74;95.69;100044.47;5011454;28;20139;-67
2021/01/18 05:01:04;;;;;;;2.28;1.10;;;;;;;-5.74;95.63;100040.22;5011579;28;20579;-66
2021/01/18 05:04:04;;;;;;;1.65;0.95;;;;;;;-5.73;95.38;100038.50;5011077;28;20508;-65
2021/01/18 05:06:58;;;;;;;1.17;0.90;;;;;;;-5.74;95.54;100040.22;5011415;28;20057;-69
2021/01/18 05:09:55;;;;;;;1.67;1.05;;;;;;;-5.74;95.75;100040.22;5011266;28;20100;-65
2021/01/18 05:12:42;;;;;;;1.30;0.80;;;;;;;-5.74;95.37;100041.91;5010896;28;20068;-66
2021/01/18 05:15:28;;;;;;;2.35;1.13;;;;;;;-5.73;95.57;100044.44;5021276;28;20056;-68
2021/01/18 05:18:13;;;;;;;3.30;0.85;;;;;;;-5.72;95.49;100040.19;5011331;28;20052;-65
2021/01/18 05:21:10;;;;;;;1.42;1.05;;;;;;;-5.74;95.55;100035.13;5011231;28;20107;-66
2021/01/18 05:23:55;;;;;;;1.92;1.10;;;;;;;-5.73;95.57;100039.34;5010299;28;20056;-68
2021/01/18 05:26:41;;;;;;;2.55;1.15;;;;;;;-5.71;95.30;100041.88;5010877;28;20069;-66
2021/01/18 05:29:33;;;;;;;2.05;1.30;;;;;;;-5.71;95.38;100042.72;5014662;28;21284;-66
2021/01/18 05:32:21;;;;;;;2.10;1.10;;;;;;;-5.70;95.23;100051.19;5014639;28;20061;-68
2021/01/18 05:35:13;;;;;;;2.38;1.35;;;;;;;-5.70;95.70;100052.06;5014855;28;20180;-68
2021/01/18 05:38:03;;;;;;;1.90;1.20;;;;;;;-5.69;95.62;100055.44;5014097;28;20464;-66
2021/01/18 05:40:51;;;;;;;1.73;1.02;;;;;;;-5.69;95.54;100056.28;5014469;28;20131;-68
2021/01/18 05:43:36;;;;;;;2.22;1.35;;;;;;;-5.68;95.42;100057.13;5009316;28;20092;-70
2021/01/18 05:46:21;;;;;;;2.42;1.45;;;;;;;-5.69;95.44;100061.38;5014558;28;20049;-68
2021/01/18 05:49:09;;;;;;;3.15;1.60;;;;;;;-5.68;95.33;100062.22;5016090;28;20061;-68
2021/01/18 05:51:55;;;;;;;2.10;1.30;;;;;;;-5.68;95.63;100057.97;5034145;28;20123;-69
2021/01/18 05:54:40;;;;;;;3.47;1.60;;;;;;;-5.66;95.73;100066.44;5034021;28;20068;-67
2021/01/18 05:57:26;;;;;;;3.20;1.80;;;;;;;-5.65;95.87;100064.72;5034587;28;20139;-68
2021/01/18 06:00:11;;;;;;;6.32;2.60;;;;;;;-5.64;95.64;100063.88;5034212;28;20619;-68
2021/01/18 06:02:58;;;;;;;5.30;2.08;;;;;;;-5.64;95.52;100061.34;5018347;28;20081;-64
2021/01/18 06:05:49;;;;;;;6.68;2.53;;;;;;;-5.61;95.46;100061.28;5014112;28;20181;-65
2021/01/18 06:08:34;;;;;;;5.60;2.85;;;;;;;-5.62;95.56;100064.69;5013365;28;20144;-68
2021/01/18 06:11:24;;;;;;;5.60;3.10;;;;;;;-5.61;95.16;100068.94;5013655;28;20795;-65
2021/01/18 06:14:10;;;;;;;5.75;2.90;;;;;;;-5.61;95.83;100068.94;5013222;28;20045;-68
2021/01/18 06:16:55;;;;;;;7.72;4.43;;;;;;;-5.62;95.72;100069.78;5013628;28;20061;-66
2021/01/18 06:19:41;;;;;;;7.00;3.25;;;;;;;-5.60;95.79;100069.78;5013925;28;20120;-69
2021/01/18 06:22:29;;;;;;;6.10;2.90;;;;;;;-5.59;95.74;100076.59;5013720;28;20088;-65
2021/01/18 06:25:15;;;;;;;6.10;3.10;;;;;;;-5.59;95.68;100063.84;5014042;28;20125;-65
2021/01/18 06:28:00;;;;;;;8.85;3.53;;;;;;;-5.60;95.60;100069.78;5014019;28;20053;-67
2021/01/18 06:30:54;;;;;;;6.30;3.05;;;;;;;-5.58;95.75;100076.56;5014268;28;20497;-68
2021/01/18 06:33:46;;;;;;;10.95;5.25;;;;;;;-5.58;95.86;100068.91;5013759;28;20057;-66
2021/01/18 06:36:35;;;;;;;8.32;3.55;;;;;;;-5.58;95.95;100076.56;5013653;28;20057;-67
2021/01/18 06:39:24;;;;;;;7.78;3.97;;;;;;;-5.56;96.21;100079.91;5026881;28;20052;-67
2021/01/18 06:42:10;;;;;;;7.55;3.63;;;;;;;-5.55;95.83;100075.69;5033332;28;20120;-68
2021/01/18 06:44:55;;;;;;;8.43;3.97;;;;;;;-5.55;95.78;100073.16;5031424;28;20047;-68
2021/01/18 06:47:41;;;;;;;9.07;3.63;;;;;;;-5.53;96.43;100077.34;5033042;28;20171;-66
2021/01/18 06:50:35;;;;;;;8.75;3.58;;;;;;;-5.53;95.91;100077.34;5032521;28;20049;-66
2021/01/18 06:53:24;;;;;;;7.57;3.58;;;;;;;-5.52;95.43;100076.50;5032388;28;20060;-66
2021/01/18 06:56:28;;;;;;;8.80;3.42;;;;;;;-5.50;95.52;100084.13;5032404;28;20199;-66
2021/01/18 06:59:39;;;;;;;7.60;3.22;;;;;;;-5.50;95.56;100073.94;5032605;28;20511;-68
2021/01/18 07:02:29;;;;;;;6.82;2.85;;;;;;;-5.49;95.67;100086.66;5032463;28;20057;-67
2021/01/18 07:05:21;;;;;;;6.28;3.15;;;;;;;-5.48;95.23;100084.97;5032663;28;20063;-67
2021/01/18 07:08:18;;;;;;;10.70;3.95;;;;;;;-5.47;95.56;100079.84;5032399;28;20060;-68
2021/01/18 07:11:10;;;;;;;7.25;3.47;;;;;;;-5.45;95.25;100082.38;5012084;28;20056;-68
2021/01/18 07:13:55;;;;;;;9.15;3.83;;;;;;;-5.47;95.55;100084.94;5010674;28;20508;-69
2021/01/18 07:16:42;;;;;;;9.25;3.90;;;;;;;-5.44;95.50;100086.63;5012432;28;20053;-66
2021/01/18 07:19:34;;;;;;;7.85;3.28;;;;;;;-5.43;95.34;100085.75;5012540;28;20543;-67
2021/01/18 07:22:25;;;;;;;5.60;3.22;;;;;;;-5.46;95.12;100086.66;5012196;28;20048;-67
2021/01/18 07:25:12;;;;;;;6.80;3.25;;;;;;;-5.45;95.02;100084.94;5011998;28;20539;-68
2021/01/18 07:27:59;;;;;;;6.80;2.92;;;;;;;-5.44;94.90;100087.47;5012059;28;20519;-69
2021/01/18 07:30:45;;;;;;;6.13;2.63;;;;;;;-5.42;95.01;100095.91;5012139;28;20531;-66
2021/01/18 07:33:31;;;;;;;7.50;2.95;;;;;;;-5.39;95.23;100089.97;5011189;28;20591;-65
2021/01/18 07:36:23;;;;;;;6.15;3.08;;;;;;;-5.38;94.99;100090.81;5010820;28;20049;-66
2021/01/18 07:39:29;;;;;;;6.15;2.80;;;;;;;-5.36;95.15;100099.28;5023623;28;20179;-68
2021/01/18 07:42:32;;;;;;;5.45;2.63;;;;;;;-5.33;95.11;100100.09;5008261;28;20045;-68
2021/01/18 07:45:19;;;;;;;5.38;2.65;;;;;;;-5.32;94.91;100113.69;5010509;28;20069;-67
2021/01/18 07:48:06;;;;;;;6.20;2.58;;;;;;;-5.30;95.18;100107.72;5010393;28;20499;-67
2021/01/18 07:51:00;;;;;;;8.45;3.60;;;;;;;-5.28;94.87;100098.34;5009198;28;20048;-69
2021/01/18 07:53:45;;;;;;;6.40;2.78;;;;;;;-5.27;95.01;100099.19;5009532;28;20049;-68
2021/01/18 07:56:32;;;;;;;6.30;2.63;;;;;;;-5.25;94.97;100100.88;5010937;28;20069;-66
2021/01/18 07:59:17;;;;;;;7.63;3.00;;;;;;;-5.20;94.77;100096.56;5010697;28;20053;-65
2021/01/18 08:02:01;;;;;;;6.18;3.10;;;;;;;-5.19;94.76;100089.75;5010526;28;20069;-65
2021/01/18 08:04:48;;;;;;;5.18;2.65;;;;;;;-5.15;94.54;100091.41;5009987;28;20053;-68
2021/01/18 08:07:59;;;;;;;5.38;2.95;;;;;;;-5.09;94.66;100098.16;5008942;28;20052;-66
2021/01/18 08:10:51;;;;;;;7.22;2.80;;;;;;;-5.07;93.76;100097.28;5010680;28;20057;-67
2021/01/18 08:13:58;;;;;;;4.78;2.22;;;;;;;-5.02;94.20;100098.09;5010171;28;20061;-65
2021/01/18 08:16:43;;;;;;;4.03;1.90;;;;;;;-5.02;94.35;100087.88;5010232;28;20060;-67
2021/01/18 08:19:30;;;;;;;3.53;1.70;;;;;;;-4.95;94.14;100088.66;5010289;28;20149;-67
2021/01/18 08:22:28;;;;;;;4.68;1.77;;;;;;;-4.94;93.84;100087.78;5010516;28;20140;-66
2021/01/18 08:25:14;;;;;;;3.70;2.05;;;;;;;-4.88;93.94;100094.53;5009923;28;20053;-66
2021/01/18 08:28:00;;;;;;;4.85;2.30;;;;;;;-4.87;93.68;100093.66;5009984;28;20056;-67
2021/01/18 08:30:55;;;;;;;5.57;3.03;;;;;;;-4.88;93.28;100085.19;5010108;28;20061;-67
2021/01/18 08:33:40;;;;;;;4.60;2.15;;;;;;;-4.87;92.93;100091.13;5009578;28;20515;-65
2021/01/18 08:36:32;;;;;;;4.72;2.50;;;;;;;-4.85;93.14;100089.38;5010302;28;20073;-67
2021/01/18 08:39:18;;;;;;;3.60;2.03;;;;;;;-4.84;93.06;100098.72;5023766;28;20444;-69
2021/01/18 08:42:04;;;;;;;4.20;2.45;;;;;;;-4.84;93.20;100088.50;5028770;28;20519;-68
2021/01/18 08:44:59;;;;;;;3.05;1.67;;;;;;;-4.81;93.07;100093.59;5026954;28;20503;-67
2021/01/18 08:47:52;;;;;;;2.53;1.30;;;;;;;-4.78;93.03;100089.31;5027985;28;20111;-66
2021/01/18 08:50:53;;;;;;;3.00;1.80;;;;;;;-4.72;92.80;100090.94;5028454;28;20111;-67
2021/01/18 08:53:41;;;;;;;3.92;2.30;;;;;;;-4.69;92.88;100090.91;5027244;28;20057;-66
2021/01/18 08:56:26;;;;;;;3.20;1.85;;;;;;;-4.67;92.53;100095.09;5027951;28;20393;-66
2021/01/18 08:59:15;;;;;;;4.85;2.35;;;;;;;-4.65;92.42;100083.19;5028089;28;20200;-66
2021/01/18 09:02:00;;;;;;;4.05;1.92;;;;;;;-4.71;92.19;100082.41;5029952;28;20072;-66
2021/01/18 09:04:46;;;;;;;3.45;1.98;;;;;;;-4.71;91.82;100088.34;5031315;28;20091;-67
2021/01/18 09:07:31;;;;;;;3.25;1.88;;;;;;;-4.74;91.81;100096.06;5032245;28;21032;-66
2021/01/18 09:10:21;;;;;;;4.05;1.90;;;;;;;-4.79;91.92;100102.94;5030699;28;20048;-67
2021/01/18 09:13:07;;;;;;;3.03;1.73;;;;;;;-4.77;91.63;100102.91;5029874;28;20597;-66
2021/01/18 09:15:54;;;;;;;4.03;2.15;;;;;;;-4.84;91.63;100108.91;5029238;28;20056;-66
2021/01/18 09:18:40;;;;;;;3.42;1.90;;;;;;;-4.83;92.00;100108.06;5030538;28;20051;-68
2021/01/18 09:21:27;;;;;;;3.40;1.63;;;;;;;-4.75;92.11;100109.66;5010663;28;20143;-65
2021/01/18 09:24:13;;;;;;;4.30;1.98;;;;;;;-4.78;92.42;100103.75;5009540;28;20073;-65
2021/01/18 09:27:00;;;;;;;3.10;2.10;;;;;;;-4.83;92.69;100106.38;5010425;28;20072;-65
2021/01/18 09:30:05;;;;;;;2.90;1.75;;;;;;;-4.76;92.71;100102.03;5010786;28;20056;-66
2021/01/18 09:32:55;;;;;;;2.78;1.65;;;;;;;-4.69;92.44;100108.75;5010100;28;20053;-68
2021/01/18 09:35:43;;;;;;;2.78;1.50;;;;;;;-4.63;92.36;100099.31;5010541;28;20188;-67
2021/01/18 09:38:29;;;;;;;4.05;2.65;;;;;;;-4.60;92.13;100100.13;5016909;28;20045;-65
2021/01/18 09:41:15;;;;;;;2.83;1.80;;;;;;;-4.63;92.15;100098.47;5030630;28;20456;-67
2021/01/18 09:44:06;;;;;;;3.78;2.20;;;;;;;-4.53;92.34;100097.47;5029268;28;20044;-67
2021/01/18 09:46:52;;;;;;;3.35;1.85;;;;;;;-4.53;92.66;100097.47;5024926;28;20065;-67
2021/01/18 09:49:37;;;;;;;3.45;2.30;;;;;;;-4.47;92.33;100094.00;5008896;28;20048;-68
2021/01/18 09:52:22;;;;;;;2.83;1.80;;;;;;;-4.45;92.27;100097.41;5010945;28;20048;-68
2021/01/18 09:55:31;;;;;;;3.17;1.98;;;;;;;-4.38;92.21;100098.97;5010636;28;20139;-68
2021/01/18 09:58:25;;;;;;;4.05;2.25;;;;;;;-4.36;91.67;100098.97;5011979;28;20065;-66
2021/01/18 10:01:14;;;;;;;3.05;2.00;;;;;;;-4.32;91.68;100098.06;5011880;28;20147;-67
2021/01/18 10:04:05;;;;;;;3.35;1.70;;;;;;;-4.26;91.83;100095.44;5011012;28;20515;-68
2021/01/18 10:07:02;;;;;;;3.25;1.85;;;;;;;-4.22;92.20;100099.63;5011206;28;20056;-67
2021/01/18 10:09:55;;;;;;;3.67;1.80;;;;;;;-4.18;91.96;100097.03;5011511;28;20089;-65
2021/01/18 10:12:49;;;;;;;2.65;1.50;;;;;;;-4.17;91.98;100096.16;5010746;28;20103;-67
2021/01/18 10:15:34;;;;;;;4.70;1.80;;;;;;;-4.21;91.59;100091.09;5010630;28;20508;-68
2021/01/18 10:18:37;;;;;;;3.45;1.98;;;;;;;-4.11;91.66;100090.09;5011062;28;20507;-67
2021/01/18 10:21:33;;;;;;;3.20;1.90;;;;;;;-4.09;91.48;100093.47;5011118;28;20188;-68
2021/01/18 10:24:25;;;;;;;3.50;1.90;;;;;;;-4.03;91.06;100092.56;5010483;28;20292;-68
2021/01/18 10:27:13;;;;;;;3.78;2.63;;;;;;;-4.06;90.86;100095.13;5011066;28;20052;-67
2021/01/18 10:30:28;;;;;;;4.43;2.67;;;;;;;-4.12;90.41;100090.97;5010975;28;20048;-66
2021/01/18 10:33:18;;;;;;;;;;;;;;;-4.19;90.40;100091.91;5010485;28;20425;-65
2021/01/18 10:36:03;;;;;;;3.70;2.10;;;;;;;-4.25;90.59;100092.00;5010807;28;19948;-67
2021/01/18 10:38:49;;;;;;;4.07;2.53;;;;;;;-4.29;90.48;100087.81;5020144;28;20148;-69
2021/01/18 10:41:34;;;;;;;3.65;1.92;;;;;;;-4.35;90.85;100082.81;5030174;28;20056;-69
2021/01/18 10:44:31;;;;;;;4.68;2.65;;;;;;;-4.40;90.84;100082.84;5028966;28;20052;-66
2021/01/18 10:47:21;;;;;;;5.30;2.30;;;;;;;-4.43;90.85;100082.88;5029045;28;20525;-65
2021/01/18 10:50:06;;;;;;;4.15;2.60;;;;;;;-4.50;90.78;100074.50;5028416;28;20056;-69
2021/01/18 10:53:04;;;;;;;3.88;2.20;;;;;;;-4.54;90.93;100088.16;5028370;28;20063;-66
2021/01/18 10:55:49;;;;;;;4.53;2.47;;;;;;;-4.55;91.19;100081.38;5008221;28;20504;-70
2021/01/18 10:58:35;;;;;;;5.15;2.72;;;;;;;-4.58;91.30;100078.84;5009096;28;20044;-67
2021/01/18 11:01:20;;;;;;;4.82;2.50;;;;;;;-4.66;91.55;100075.53;5009060;28;20044;-65
2021/01/18 11:04:06;;;;;;;5.07;2.60;;;;;;;-4.60;91.93;100084.81;5008623;28;20056;-66
2021/01/18 11:06:54;;;;;;;25.77;13.38;;;;;;;-4.59;91.74;100081.41;5006178;28;20060;-71
2021/01/18 11:09:40;;;;;;;7.32;4.22;;;;;;;-4.63;91.88;100085.72;5007720;28;20124;-66
2021/01/18 11:12:43;;;;;;;5.30;3.03;;;;;;;-4.60;91.39;100077.16;5007200;28;20052;-68
2021/01/18 11:15:30;;;;;;;101.95;55.80;;;;;;;-4.64;91.58;100081.47;5006973;28;20056;-67
2021/01/18 11:18:20;;;;;;;18.88;11.02;;;;;;;-4.63;91.65;100084.00;5012371;28;20057;-65
2021/01/18 11:21:05;;;;;;;8.27;4.43;;;;;;;-4.68;91.28;100083.22;5027684;28;20064;-69
2021/01/18 11:23:50;;;;;;;3.92;2.17;;;;;;;-4.66;92.11;100080.63;5027207;28;20044;-68
2021/01/18 11:26:36;;;;;;;3.72;2.08;;;;;;;-4.68;91.46;100079.81;5027411;28;20703;-65
2021/01/18 11:29:21;;;;;;;3.15;1.90;;;;;;;-4.70;91.58;100084.09;5027202;28;20519;-67
2021/01/18 11:32:06;;;;;;;2.88;1.50;;;;;;;-4.70;91.67;100081.53;5027560;28;20063;-66
2021/01/18 11:34:51;;;;;;;3.53;1.98;;;;;;;-4.71;91.61;100087.50;5027513;28;20056;-67
2021/01/18 11:37:37;;;;;;;2.72;1.63;;;;;;;-4.73;91.70;100084.16;5027981;28;20114;-69
2021/01/18 11:40:23;;;;;;;3.47;1.92;;;;;;;-4.74;92.02;100085.00;5008395;28;20080;-67
2021/01/18 11:43:08;;;;;;;3.50;1.95;;;;;;;-4.75;92.16;100085.84;5008143;28;20101;-68
2021/01/18 11:45:53;;;;;;;3.00;1.85;;;;;;;-4.83;92.40;100082.56;5008223;28;20668;-68
2021/01/18 11:48:38;;;;;;;3.58;1.85;;;;;;;-4.82;92.24;100082.53;5008181;28;20057;-66
2021/01/18 11:51:24;;;;;;;3.78;1.90;;;;;;;-4.80;92.25;100082.50;5007984;28;20049;-67
2021/01/18 11:54:09;;;;;;;3.78;1.88;;;;;;;-4.88;91.82;100074.13;5006957;28;20184;-68
2021/01/18 11:56:54;;;;;;;2.70;1.58;;;;;;;-4.89;92.33;100080.91;5008294;28;20104;-64
2021/01/18 11:59:39;;;;;;;3.53;2.00;;;;;;;-4.88;92.24;100081.78;5008184;28;20057;-65
2021/01/18 12:02:24;;;;;;;3.20;1.60;;;;;;;-4.87;92.23;100078.38;5008410;28;20060;-66
2021/01/18 12:05:10;;;;;;;3.15;1.98;;;;;;;-4.86;92.09;100074.94;5007728;28;20044;-67
2021/01/18 12:08:02;;;;;;;2.90;1.77;;;;;;;-4.92;92.38;100074.16;5008011;28;20111;-65
2021/01/18 12:10:48;;;;;;;3.63;1.60;;;;;;;-4.94;92.29;100073.34;5007882;28;20049;-68
2021/01/18 12:13:33;;;;;;;3.90;2.15;;;;;;;-5.03;92.89;100057.28;5006958;28;20104;-68
2021/01/18 12:16:25;;;;;;;3.20;1.73;;;;;;;-5.00;92.74;100058.09;5007474;28;20049;-65
2021/01/18 12:19:14;;;;;;;2.80;1.52;;;;;;;-5.00;92.76;100060.66;5007228;28;20405;-67
2021/01/18 12:21:59;;;;;;;3.72;2.05;;;;;;;-5.02;93.28;100067.50;5007671;28;20196;-67
2021/01/18 12:24:44;;;;;;;2.97;1.73;;;;;;;-5.10;92.96;100064.16;5005450;28;20147;-65
2021/01/18 12:27:29;;;;;;;2.15;1.60;;;;;;;-5.15;93.16;100055.72;5020459;28;20053;-64
2021/01/18 12:30:15;;;;;;;3.97;2.05;;;;;;;-5.16;93.45;100060.00;5007434;28;20088;-66
2021/01/18 12:33:00;;;;;;;5.05;2.58;;;;;;;-5.15;92.99;100056.56;5006738;28;20061;-65
2021/01/18 12:36:04;;;;;;;3.38;2.00;;;;;;;-5.19;93.43;100056.63;5006786;28;20068;-67
2021/01/18 12:38:49;;;;;;;3.45;2.15;;;;;;;-5.19;93.22;100056.63;5020787;28;20053;-64
2021/01/18 12:41:38;;;;;;;4.32;2.20;;;;;;;-5.20;93.45;100055.78;5027400;28;20519;-65
2021/01/18 12:44:24;;;;;;;2.85;1.73;;;;;;;-5.21;93.38;100054.09;5009329;28;20208;-65
2021/01/18 12:47:10;;;;;;;2.85;1.48;;;;;;;-5.22;93.71;100065.16;5008716;28;20696;-66
2021/01/18 12:49:55;;;;;;;4.63;1.88;;;;;;;-5.26;93.81;100060.97;5010001;28;20056;-66
2021/01/18 12:52:43;;;;;;;3.63;2.03;;;;;;;-5.25;93.41;100052.44;5010557;28;20052;-67
2021/01/18 12:55:29;;;;;;;2.90;1.77;;;;;;;-5.26;93.70;100057.56;5010566;28;20044;-67
2021/01/18 12:58:14;;;;;;;4.05;2.05;;;;;;;-5.27;93.88;100060.94;5011325;28;20129;-66
2021/01/18 13:00:59;;;;;;;3.05;1.60;;;;;;;-5.28;93.88;100049.91;5010620;28;20049;-65
2021/01/18 13:03:45;;;;;;;3.60;1.85;;;;;;;-5.32;93.71;100045.72;5010640;28;20571;-65
2021/01/18 13:06:50;;;;;;;2.90;1.70;;;;;;;-5.35;93.87;100047.47;5010456;28;20052;-66